Freedom, Oklahoma
Current Conditions -  °F | °C
As of 1:10 AM on Thursday 23 Oct 2014 (Local Time) from KAVK Reporting Station
Broken Clouds Broken Clouds  
Wind Chill: 14°   Ceiling: 3000
Heat Index: 14°   Visibility: 10mi
Dew Point: 14°   Wind: 10mph
Humidity: 100%   Direction: 190°S
Pressure: 30.08"   Gusts: NA
Location:  36.77°N, 99.11°W
Report Text: KAVK 230610Z AUTO 19009KT 10SM BKN030 BKN036 14/14 A3008 RMK AO2
Loading
Personal Weather Stations






























Interactive Weather Map
Tropical Storm Tracking
New forecast layout! Learn more

10-Day Weather Forecast

Advertisements
Track Severe Weather on mobile